createdAt,value
2022-11-13T00:01:31.926Z,4.44
2022-11-13T00:04:18.004Z,4.22
2022-11-13T00:07:03.588Z,4.33
2022-11-13T00:09:49.270Z,4.31
2022-11-13T00:12:35.077Z,4.26
2022-11-13T00:15:20.488Z,3.90
2022-11-13T00:18:06.183Z,4.26
2022-11-13T00:20:51.759Z,4.22
2022-11-13T00:23:37.901Z,4.09
2022-11-13T00:26:26.495Z,4.12
2022-11-13T00:29:11.961Z,4.07
2022-11-13T00:31:57.571Z,4.09
2022-11-13T00:34:48.099Z,4.03
2022-11-13T00:37:34.285Z,4.05
2022-11-13T00:40:20.113Z,3.97
2022-11-13T00:43:05.564Z,3.90
2022-11-13T00:45:51.757Z,3.08
2022-11-13T00:48:37.745Z,3.79
2022-11-13T00:51:23.706Z,3.67
2022-11-13T00:54:09.274Z,3.60
2022-11-13T00:56:55.024Z,3.59
2022-11-13T00:59:40.852Z,3.50
2022-11-13T01:02:26.427Z,3.44
2022-11-13T01:05:12.332Z,3.46
2022-11-13T01:07:57.829Z,3.46
2022-11-13T01:10:53.423Z,3.44
2022-11-13T01:13:41.267Z,3.38
2022-11-13T01:16:28.122Z,2.91
2022-11-13T01:19:13.924Z,2.93
2022-11-13T01:21:59.496Z,3.23
2022-11-13T01:24:45.309Z,3.27
2022-11-13T01:27:31.584Z,3.29
2022-11-13T01:30:17.607Z,3.31
2022-11-13T01:33:03.234Z,3.27
2022-11-13T01:35:49.034Z,3.03
2022-11-13T01:38:36.953Z,3.24
2022-11-13T01:41:31.733Z,3.25
2022-11-13T01:44:19.014Z,3.24
2022-11-13T01:47:05.302Z,2.83
2022-11-13T01:49:55.988Z,3.15
2022-11-13T01:52:42.655Z,3.20
2022-11-13T01:55:29.019Z,3.14
2022-11-13T01:58:14.968Z,3.14
2022-11-13T02:01:00.796Z,3.12
2022-11-13T02:03:46.466Z,3.01
2022-11-13T02:06:42.441Z,2.95
2022-11-13T02:09:35.516Z,2.83
2022-11-13T02:12:43.473Z,2.88
2022-11-13T02:15:33.599Z,2.88
2022-11-13T02:18:22.383Z,2.84
2022-11-13T02:21:16.530Z,2.78
2022-11-13T02:24:20.817Z,2.52
2022-11-13T02:27:10.846Z,2.55
2022-11-13T02:29:56.083Z,2.71
2022-11-13T02:32:44.247Z,2.66
2022-11-13T02:35:33.566Z,2.64
2022-11-13T02:38:18.931Z,2.57
2022-11-13T02:41:04.629Z,2.59
2022-11-13T02:43:50.133Z,2.43
2022-11-13T02:46:36.104Z,2.45
2022-11-13T02:49:21.693Z,2.39
2022-11-13T02:52:07.344Z,2.39
2022-11-13T02:54:53.096Z,2.41
2022-11-13T02:57:38.610Z,2.43
2022-11-13T03:00:24.477Z,2.45
2022-11-13T03:03:10.117Z,2.46
2022-11-13T03:05:55.697Z,2.40
2022-11-13T03:08:41.322Z,2.38
2022-11-13T03:11:27.161Z,2.31
2022-11-13T03:14:12.747Z,2.38
2022-11-13T03:16:58.433Z,2.15
2022-11-13T03:19:44.295Z,2.08
2022-11-13T03:22:29.962Z,1.91
2022-11-13T03:25:15.861Z,2.38
2022-11-13T03:28:01.586Z,2.36
2022-11-13T03:30:47.825Z,2.35
2022-11-13T03:33:33.495Z,2.28
2022-11-13T03:36:19.302Z,2.23
2022-11-13T03:39:04.989Z,2.24
2022-11-13T03:41:50.746Z,2.26
2022-11-13T03:44:36.024Z,2.15
2022-11-13T03:47:21.773Z,2.13
2022-11-13T03:50:07.583Z,2.10
2022-11-13T03:52:53.239Z,2.07
2022-11-13T03:55:38.725Z,2.02
2022-11-13T03:58:24.521Z,2.01
2022-11-13T04:01:10.574Z,2.04
2022-11-13T04:03:55.867Z,2.08
2022-11-13T04:06:41.748Z,2.14
2022-11-13T04:09:27.282Z,2.18
2022-11-13T04:12:12.898Z,2.19
2022-11-13T04:14:58.642Z,2.15
2022-11-13T04:17:44.286Z,2.18
2022-11-13T04:20:30.149Z,2.05
2022-11-13T04:23:17.803Z,2.09
2022-11-13T04:26:03.545Z,2.03
2022-11-13T04:28:48.973Z,1.89
2022-11-13T04:31:34.604Z,1.50
2022-11-13T04:34:20.035Z,1.87
2022-11-13T04:37:05.841Z,1.87
2022-11-13T04:39:51.416Z,1.88
2022-11-13T04:42:48.853Z,1.88
2022-11-13T04:45:35.032Z,1.53
2022-11-13T04:48:20.506Z,1.79
2022-11-13T04:51:06.275Z,1.23
2022-11-13T04:53:51.864Z,1.67
2022-11-13T04:56:37.273Z,1.70
2022-11-13T04:59:23.058Z,1.67
2022-11-13T05:02:08.623Z,1.70
2022-11-13T05:04:53.991Z,1.74
2022-11-13T05:07:39.555Z,1.73
2022-11-13T05:10:25.180Z,1.71
2022-11-13T05:13:10.971Z,1.71
2022-11-13T05:16:15.233Z,1.40
2022-11-13T05:19:01.606Z,1.65
2022-11-13T05:21:46.971Z,1.57
2022-11-13T05:24:32.945Z,1.57
2022-11-13T05:27:18.726Z,1.62
2022-11-13T05:30:04.831Z,1.50
2022-11-13T05:32:51.767Z,1.50
2022-11-13T05:35:37.080Z,1.28
2022-11-13T05:38:22.437Z,1.50
2022-11-13T05:41:13.658Z,1.51
2022-11-13T05:44:00.027Z,1.51
2022-11-13T05:46:45.729Z,1.23
2022-11-13T05:49:31.513Z,1.48
2022-11-13T05:52:16.889Z,1.44
2022-11-13T05:55:02.763Z,1.41
2022-11-13T05:57:48.310Z,1.44
2022-11-13T06:00:33.890Z,0.86
2022-11-13T06:03:19.820Z,1.38
2022-11-13T06:06:07.633Z,1.36
2022-11-13T06:08:54.183Z,1.32
2022-11-13T06:11:39.921Z,1.24
2022-11-13T06:14:25.909Z,1.21
2022-11-13T06:17:11.435Z,1.21
2022-11-13T06:19:57.210Z,1.10
2022-11-13T06:22:43.017Z,1.10
2022-11-13T06:25:28.922Z,1.01
2022-11-13T06:28:14.283Z,1.11
2022-11-13T06:31:11.639Z,1.15
2022-11-13T06:34:00.320Z,1.17
2022-11-13T06:36:45.910Z,1.20
2022-11-13T06:39:31.699Z,1.25
2022-11-13T06:42:17.348Z,1.22
2022-11-13T06:45:04.135Z,1.28
2022-11-13T06:47:49.922Z,1.31
2022-11-13T06:50:35.467Z,1.28
2022-11-13T06:53:21.295Z,1.26
2022-11-13T06:56:07.880Z,1.30
2022-11-13T06:58:56.525Z,1.42
2022-11-13T07:01:42.163Z,1.48
2022-11-13T07:04:27.955Z,1.62
2022-11-13T07:07:13.306Z,1.63
2022-11-13T07:09:58.997Z,1.72
2022-11-13T07:12:44.760Z,1.88
2022-11-13T07:15:34.910Z,1.67
2022-11-13T07:18:24.098Z,2.04
2022-11-13T07:21:12.507Z,2.07
2022-11-13T07:23:58.191Z,2.13
2022-11-13T07:26:43.814Z,2.26
2022-11-13T07:29:29.611Z,1.90
2022-11-13T07:32:15.333Z,2.45
2022-11-13T07:35:00.987Z,2.58
2022-11-13T07:37:46.746Z,2.66
2022-11-13T07:40:32.350Z,2.77
2022-11-13T07:43:18.045Z,2.48
2022-11-13T07:46:03.783Z,2.90
2022-11-13T07:48:49.197Z,2.85
2022-11-13T07:51:34.563Z,2.95
2022-11-13T07:54:20.253Z,3.13
2022-11-13T07:57:06.216Z,2.78
2022-11-13T07:59:51.530Z,3.19
2022-11-13T08:02:37.297Z,3.20
2022-11-13T08:05:23.195Z,3.19
2022-11-13T08:08:12.958Z,3.26
2022-11-13T08:10:58.744Z,3.37
2022-11-13T08:13:44.415Z,3.49
2022-11-13T08:16:29.905Z,3.73
2022-11-13T08:19:15.602Z,3.80
2022-11-13T08:22:01.131Z,3.91
2022-11-13T08:24:46.784Z,4.15
2022-11-13T08:27:32.625Z,4.21
2022-11-13T08:30:19.167Z,4.43
2022-11-13T08:33:05.158Z,4.50
2022-11-13T08:35:59.768Z,4.71
2022-11-13T08:38:47.938Z,4.80
2022-11-13T08:41:33.816Z,4.85
2022-11-13T08:44:19.287Z,4.98
2022-11-13T08:47:05.098Z,5.21
2022-11-13T08:49:50.722Z,5.30
2022-11-13T08:52:36.753Z,5.45
2022-11-13T08:55:22.309Z,5.49
2022-11-13T08:58:09.157Z,5.57
2022-11-13T09:00:59.984Z,5.74
2022-11-13T09:03:45.588Z,5.87
2022-11-13T09:06:31.250Z,6.05
2022-11-13T09:09:17.114Z,6.18
2022-11-13T09:12:02.884Z,6.24
2022-11-13T09:14:48.716Z,6.37
2022-11-13T09:17:34.250Z,6.58
2022-11-13T09:20:22.795Z,6.84
2022-11-13T09:23:09.601Z,6.98
2022-11-13T09:25:56.066Z,7.11
2022-11-13T09:28:41.451Z,7.17
2022-11-13T09:31:28.332Z,7.44
2022-11-13T09:34:14.183Z,7.60
2022-11-13T09:37:00.257Z,7.68
2022-11-13T09:39:46.097Z,7.82
2022-11-13T09:42:33.077Z,7.87
2022-11-13T09:45:18.830Z,8.04
2022-11-13T09:48:18.104Z,8.22
2022-11-13T09:51:30.440Z,8.41
2022-11-13T09:54:17.117Z,8.59
2022-11-13T09:57:05.715Z,8.68
2022-11-13T10:00:00.894Z,8.77
2022-11-13T10:03:06.151Z,8.82
2022-11-13T10:06:24.838Z,7.48
2022-11-13T10:09:40.878Z,8.57
2022-11-13T10:12:30.935Z,9.17
2022-11-13T10:15:17.503Z,9.26
2022-11-13T10:18:51.723Z,9.48
2022-11-13T10:21:45.874Z,9.56
2022-11-13T10:24:41.653Z,9.60
2022-11-13T10:27:27.170Z,9.35
2022-11-13T10:30:17.660Z,9.87
2022-11-13T10:33:13.015Z,10.08
2022-11-13T10:36:20.626Z,10.47
2022-11-13T10:39:08.574Z,10.67
2022-11-13T10:41:55.844Z,10.66
2022-11-13T10:44:59.250Z,10.66
2022-11-13T10:48:03.901Z,10.71
2022-11-13T10:51:01.334Z,10.94
2022-11-13T10:53:47.293Z,10.96
2022-11-13T10:56:35.104Z,11.09
2022-11-13T10:59:20.605Z,11.30
2022-11-13T11:02:26.818Z,11.36
2022-11-13T11:05:24.843Z,11.59
2022-11-13T11:08:11.098Z,11.72
2022-11-13T11:11:20.734Z,11.73
2022-11-13T11:14:22.545Z,11.89
2022-11-13T11:17:12.665Z,12.16
2022-11-13T11:20:13.512Z,12.30
2022-11-13T11:23:09.086Z,12.46
2022-11-13T11:25:59.712Z,12.47
2022-11-13T11:28:51.739Z,12.58
2022-11-13T11:31:50.910Z,12.74
2022-11-13T11:34:42.010Z,13.05
2022-11-13T11:37:39.395Z,13.18
2022-11-13T11:40:30.826Z,13.33
2022-11-13T11:43:40.691Z,13.28
2022-11-13T11:46:28.357Z,13.41
2022-11-13T11:49:14.094Z,13.53
2022-11-13T11:52:14.839Z,13.73
2022-11-13T11:55:08.056Z,13.77
2022-11-13T11:57:58.310Z,13.84
2022-11-13T12:00:50.900Z,13.84
2022-11-13T12:03:48.973Z,13.93
2022-11-13T12:07:00.250Z,14.05
2022-11-13T12:09:55.656Z,14.12
2022-11-13T12:12:43.795Z,14.17
2022-11-13T12:16:13.028Z,14.40
2022-11-13T12:19:13.312Z,14.43
2022-11-13T12:22:30.544Z,14.57
2022-11-13T12:25:29.428Z,14.69
2022-11-13T12:28:24.730Z,14.78
2022-11-13T12:31:38.967Z,14.87
2022-11-13T12:34:42.408Z,14.95
2022-11-13T12:37:38.437Z,15.10
2022-11-13T12:40:49.412Z,15.00
2022-11-13T12:44:01.396Z,15.05
2022-11-13T12:46:48.381Z,15.02
2022-11-13T12:49:35.309Z,15.08
2022-11-13T12:52:24.220Z,15.04
2022-11-13T12:55:34.789Z,15.01
2022-11-13T12:58:27.392Z,14.68
2022-11-13T13:01:16.585Z,14.99
2022-11-13T13:04:11.069Z,14.89
2022-11-13T13:07:13.456Z,15.10
2022-11-13T13:10:16.995Z,15.08
2022-11-13T13:13:24.288Z,15.18
2022-11-13T13:16:11.273Z,15.08
2022-11-13T13:19:30.622Z,15.00
2022-11-13T13:22:30.456Z,15.12
2022-11-13T13:25:28.352Z,15.08
2022-11-13T13:28:24.206Z,15.22
2022-11-13T13:31:12.495Z,15.18
2022-11-13T13:34:24.800Z,15.22
2022-11-13T13:37:37.646Z,15.23
2022-11-13T13:40:22.953Z,15.16
2022-11-13T13:43:23.560Z,15.05
2022-11-13T13:46:30.903Z,14.96
2022-11-13T13:49:21.507Z,15.00
2022-11-13T13:52:07.002Z,15.01
2022-11-13T13:54:53.016Z,14.62
2022-11-13T13:57:41.555Z,14.90
2022-11-13T14:00:27.786Z,14.71
2022-11-13T14:03:22.030Z,14.73
2022-11-13T14:06:19.028Z,14.92
2022-11-13T14:09:16.823Z,14.90
2022-11-13T14:12:09.960Z,14.91
2022-11-13T14:14:56.002Z,14.80
2022-11-13T14:17:41.980Z,14.76
2022-11-13T14:20:27.830Z,14.70
2022-11-13T14:23:19.211Z,14.77
2022-11-13T14:26:06.290Z,14.59
2022-11-13T14:29:01.839Z,14.46
2022-11-13T14:31:47.515Z,14.33
2022-11-13T14:34:33.340Z,13.93
2022-11-13T14:37:32.878Z,14.29
2022-11-13T14:40:37.394Z,14.22
2022-11-13T14:43:27.823Z,14.08
2022-11-13T14:46:44.516Z,13.90
2022-11-13T14:49:33.546Z,13.78
2022-11-13T14:52:27.151Z,13.64
2022-11-13T14:55:25.701Z,13.48
2022-11-13T14:58:13.905Z,12.99
2022-11-13T15:01:12.439Z,13.20
2022-11-13T15:03:58.359Z,13.06
2022-11-13T15:06:44.630Z,12.88
2022-11-13T15:09:31.140Z,12.79
2022-11-13T15:12:16.924Z,12.63
2022-11-13T15:15:02.414Z,12.62
2022-11-13T15:17:50.977Z,12.22
2022-11-13T15:20:36.651Z,12.42
2022-11-13T15:23:25.443Z,12.29
2022-11-13T15:26:12.076Z,12.19
2022-11-13T15:28:57.709Z,12.03
2022-11-13T15:31:46.049Z,11.97
2022-11-13T15:34:31.511Z,11.79
2022-11-13T15:37:17.607Z,11.37
2022-11-13T15:40:03.917Z,11.36
2022-11-13T15:42:49.402Z,11.42
2022-11-13T15:45:37.633Z,11.22
2022-11-13T15:48:25.802Z,11.10
2022-11-13T15:51:37.476Z,11.10
2022-11-13T15:54:31.040Z,10.93
2022-11-13T15:57:21.161Z,10.84
2022-11-13T16:00:14.152Z,10.80
2022-11-13T16:03:00.281Z,10.77
2022-11-13T16:05:45.714Z,10.67
2022-11-13T16:08:31.504Z,10.60
2022-11-13T16:11:19.019Z,10.45
2022-11-13T16:14:05.115Z,10.38
2022-11-13T16:16:51.955Z,10.24
2022-11-13T16:19:39.182Z,10.09
2022-11-13T16:22:26.657Z,9.98
2022-11-13T16:25:15.422Z,9.80
2022-11-13T16:28:00.932Z,9.58
2022-11-13T16:30:47.121Z,9.51
2022-11-13T16:33:32.577Z,9.39
2022-11-13T16:36:20.561Z,9.24
2022-11-13T16:39:06.364Z,9.13
2022-11-13T16:41:51.920Z,9.12
2022-11-13T16:44:38.107Z,9.13
2022-11-13T16:47:25.897Z,9.14
2022-11-13T16:50:33.094Z,9.14
2022-11-13T16:53:18.952Z,9.02
2022-11-13T16:56:12.886Z,8.89
2022-11-13T16:58:58.900Z,8.83
2022-11-13T17:01:44.689Z,8.87
2022-11-13T17:04:30.495Z,8.88
2022-11-13T17:07:16.391Z,8.83
2022-11-13T17:10:29.579Z,8.76
2022-11-13T17:13:09.683Z,8.28
2022-11-13T17:15:55.454Z,8.50
2022-11-13T17:18:40.872Z,8.48
2022-11-13T17:21:27.926Z,8.39
2022-11-13T17:24:13.763Z,8.24
2022-11-13T17:26:59.432Z,8.04
2022-11-13T17:29:45.331Z,7.94
2022-11-13T17:32:30.896Z,7.87
2022-11-13T17:35:17.922Z,7.85
2022-11-13T17:38:03.690Z,7.78
2022-11-13T17:40:49.508Z,7.46
2022-11-13T17:43:39.168Z,7.79
2022-11-13T17:46:24.903Z,7.45
2022-11-13T17:49:10.754Z,7.79
2022-11-13T17:51:56.793Z,7.77
2022-11-13T17:54:42.426Z,7.60
2022-11-13T17:57:27.795Z,7.59
2022-11-13T18:00:13.934Z,7.56
2022-11-13T18:02:59.547Z,7.45
2022-11-13T18:05:46.047Z,7.27
2022-11-13T18:08:31.414Z,7.17
2022-11-13T18:11:23.750Z,7.06
2022-11-13T18:14:09.215Z,7.00
2022-11-13T18:16:54.739Z,6.92
2022-11-13T18:19:40.473Z,6.85
2022-11-13T18:22:26.096Z,6.74
2022-11-13T18:25:11.957Z,6.59
2022-11-13T18:27:57.274Z,6.43
2022-11-13T18:30:44.633Z,6.38
2022-11-13T18:33:30.501Z,6.30
2022-11-13T18:36:16.362Z,6.36
2022-11-13T18:39:03.062Z,6.06
2022-11-13T18:41:48.838Z,6.37
2022-11-13T18:44:35.468Z,6.31
2022-11-13T18:47:21.205Z,6.27
2022-11-13T18:50:07.079Z,6.06
2022-11-13T18:52:54.979Z,6.16
2022-11-13T18:55:40.822Z,6.05
2022-11-13T18:58:27.730Z,6.00
2022-11-13T19:01:22.344Z,5.92
2022-11-13T19:04:22.781Z,5.79
2022-11-13T19:07:11.965Z,5.75
2022-11-13T19:09:57.617Z,5.69
2022-11-13T19:12:43.234Z,5.65
2022-11-13T19:15:29.070Z,5.64
2022-11-13T19:18:14.666Z,5.53
2022-11-13T19:21:08.457Z,5.45
2022-11-13T19:23:54.389Z,5.41
2022-11-13T19:26:41.411Z,5.40
2022-11-13T19:29:27.101Z,5.37
2022-11-13T19:32:12.754Z,5.24
2022-11-13T19:34:58.149Z,5.27
2022-11-13T19:37:43.988Z,5.22
2022-11-13T19:40:29.870Z,5.09
2022-11-13T19:43:15.519Z,5.03
2022-11-13T19:46:05.190Z,5.00
2022-11-13T19:48:51.806Z,4.40
2022-11-13T19:51:37.551Z,4.85
2022-11-13T19:54:22.981Z,4.85
2022-11-13T19:57:08.811Z,4.95
2022-11-13T19:59:54.121Z,4.97
2022-11-13T20:02:39.897Z,4.92
2022-11-13T20:05:25.782Z,4.39
2022-11-13T20:08:12.762Z,4.82
2022-11-13T20:11:03.805Z,4.80
2022-11-13T20:13:49.556Z,4.78
2022-11-13T20:16:35.187Z,4.75
2022-11-13T20:19:20.846Z,4.74
2022-11-13T20:22:06.686Z,4.68
2022-11-13T20:24:52.051Z,4.61
2022-11-13T20:27:39.883Z,4.44
2022-11-13T20:30:27.556Z,4.43
2022-11-13T20:33:14.590Z,4.43
2022-11-13T20:36:03.725Z,4.40
2022-11-13T20:38:51.813Z,4.44
2022-11-13T20:41:37.697Z,4.37
2022-11-13T20:44:23.357Z,4.39
2022-11-13T20:47:09.034Z,4.35
2022-11-13T20:49:54.394Z,4.23
2022-11-13T20:52:40.412Z,4.18
2022-11-13T20:55:25.902Z,4.08
2022-11-13T20:58:11.238Z,4.01
2022-11-13T21:01:05.316Z,3.87
2022-11-13T21:03:51.938Z,3.84
2022-11-13T21:06:37.839Z,3.79
2022-11-13T21:09:23.291Z,3.61
2022-11-13T21:12:09.109Z,3.65
2022-11-13T21:14:54.463Z,3.63
2022-11-13T21:17:40.096Z,3.54
2022-11-13T21:20:25.831Z,3.39
2022-11-13T21:23:11.389Z,3.48
2022-11-13T21:26:00.996Z,3.51
2022-11-13T21:28:46.780Z,3.46
2022-11-13T21:31:32.257Z,3.47
2022-11-13T21:34:17.627Z,3.44
2022-11-13T21:37:03.293Z,3.47
2022-11-13T21:39:48.832Z,3.31
2022-11-13T21:42:34.592Z,3.36
2022-11-13T21:45:19.997Z,3.34
2022-11-13T21:48:05.842Z,3.28
2022-11-13T21:50:51.756Z,3.28
2022-11-13T21:53:38.211Z,3.21
2022-11-13T21:56:25.204Z,3.12
2022-11-13T21:59:10.583Z,3.09
2022-11-13T22:01:56.219Z,3.04
2022-11-13T22:04:41.616Z,3.06
2022-11-13T22:07:27.148Z,3.00
2022-11-13T22:10:12.718Z,2.90
2022-11-13T22:12:58.443Z,2.94
2022-11-13T22:15:43.995Z,2.93
2022-11-13T22:18:29.927Z,2.90
2022-11-13T22:21:15.774Z,2.86
2022-11-13T22:24:01.633Z,2.83
2022-11-13T22:26:48.352Z,2.82
2022-11-13T22:29:33.725Z,2.78
2022-11-13T22:32:19.118Z,2.83
2022-11-13T22:35:05.286Z,2.86
2022-11-13T22:37:51.045Z,2.87
2022-11-13T22:40:36.941Z,2.86
2022-11-13T22:43:22.644Z,2.69
2022-11-13T22:46:11.180Z,2.74
2022-11-13T22:48:58.112Z,2.32
2022-11-13T22:51:43.839Z,2.62
2022-11-13T22:54:29.293Z,2.64
2022-11-13T22:57:14.636Z,2.53
2022-11-13T23:00:00.413Z,2.57
2022-11-13T23:02:47.515Z,2.51
2022-11-13T23:05:36.062Z,2.30
2022-11-13T23:08:21.717Z,2.53
2022-11-13T23:11:37.775Z,2.59
2022-11-13T23:14:23.466Z,2.59
2022-11-13T23:17:09.262Z,2.58
2022-11-13T23:19:54.885Z,2.57
2022-11-13T23:22:40.460Z,2.47
2022-11-13T23:25:26.298Z,2.40
2022-11-13T23:28:12.025Z,2.44
2022-11-13T23:30:58.271Z,2.51
2022-11-13T23:33:44.165Z,2.52
2022-11-13T23:36:30.852Z,2.64
2022-11-13T23:39:16.296Z,2.69
2022-11-13T23:42:02.034Z,2.74
2022-11-13T23:44:47.608Z,2.87
2022-11-13T23:47:33.090Z,2.90
2022-11-13T23:50:18.927Z,2.93
2022-11-13T23:53:04.381Z,3.00
2022-11-13T23:55:49.745Z,3.18
2022-11-13T23:58:35.859Z,3.15
